Time,TemperatureF,DewpointF,PressureIn,WindDirection,WindDirectionDegrees,WindSpeedMPH,WindSpeedGustMPH,Humidity,HourlyPrecipIn,Conditions,Clouds,dailyrainin,SoftwareType,DateUTC
2013-01-24 00:00:00,60.5,59.1,30.26,SW,231,0.0,0.0,95,0.00,,,0.00,Wunderground v.1.15,2013-01-24 06:00:00,
2013-01-24 00:09:00,60.4,59.3,30.26,West,263,0.0,0.0,96,0.00,,,0.00,Wunderground v.1.15,2013-01-24 06:09:00,
2013-01-24 00:15:00,60.4,59.0,30.26,WNW,291,0.0,0.0,95,0.00,,,0.00,Wunderground v.1.15,2013-01-24 06:15:00,
2013-01-24 00:24:00,60.1,59.0,30.26,West,262,0.0,0.0,96,0.00,,,0.00,Wunderground v.1.15,2013-01-24 06:24:00,
2013-01-24 00:30:00,60.1,59.0,30.26,WSW,250,0.0,0.0,96,0.00,,,0.00,Wunderground v.1.15,2013-01-24 06:30:00,
2013-01-24 00:39:00,59.9,58.8,30.26,SSW,207,0.0,0.0,96,0.00,,,0.00,Wunderground v.1.15,2013-01-24 06:39:00,
2013-01-24 00:45:00,59.9,58.8,30.26,West,266,0.0,0.0,96,0.00,,,0.00,Wunderground v.1.15,2013-01-24 06:45:00,
2013-01-24 00:55:00,59.7,58.6,30.26,WSW,243,0.0,0.0,96,0.00,,,0.00,Wunderground v.1.15,2013-01-24 06:55:00,
2013-01-24 01:05:00,59.9,58.8,30.26,West,273,1.0,1.0,96,0.00,,,0.00,Wunderground v.1.15,2013-01-24 07:05:00,
2013-01-24 01:14:00,59.7,58.6,30.26,West,271,0.0,1.0,96,0.00,,,0.00,Wunderground v.1.15,2013-01-24 07:14:00,
2013-01-24 01:25:00,59.7,58.6,30.26,SSW,203,1.0,1.0,96,0.00,,,0.00,Wunderground v.1.15,2013-01-24 07:25:00,
2013-01-24 01:35:00,59.5,58.4,30.25,West,267,0.0,1.0,96,0.00,,,0.00,Wunderground v.1.15,2013-01-24 07:35:00,
2013-01-24 01:45:00,59.3,58.2,30.25,West,274,0.0,0.0,96,0.00,,,0.00,Wunderground v.1.15,2013-01-24 07:45:00,
2013-01-24 01:54:00,59.2,58.1,30.25,WSW,245,0.0,0.0,96,0.00,,,0.00,Wunderground v.1.15,2013-01-24 07:54:00,
2013-01-24 02:00:00,59.1,58.0,30.25,SW,225,0.0,0.0,96,0.00,,,0.00,Wunderground v.1.15,2013-01-24 08:00:00,
2013-01-24 02:09:00,59.0,57.9,30.25,South,177,0.0,1.0,96,0.00,,,0.00,Wunderground v.1.15,2013-01-24 08:09:00,
2013-01-24 02:15:00,59.0,58.2,30.25,NW,312,1.0,1.0,97,0.00,,,0.00,Wunderground v.1.15,2013-01-24 08:15:00,
2013-01-24 02:25:00,59.1,58.2,30.24,SW,235,1.0,1.0,97,0.00,,,0.00,Wunderground v.1.15,2013-01-24 08:25:00,
2013-01-24 02:35:00,59.2,58.3,30.24,SSW,211,1.0,1.0,97,0.00,,,0.00,Wunderground v.1.15,2013-01-24 08:35:00,
2013-01-24 02:45:00,59.2,58.3,30.24,WSW,250,1.0,1.0,97,0.00,,,0.00,Wunderground v.1.15,2013-01-24 08:45:00,
2013-01-24 02:55:00,59.3,58.4,30.25,West,269,1.0,1.0,97,0.00,,,0.00,Wunderground v.1.15,2013-01-24 08:55:00,
2013-01-24 03:05:00,59.4,58.5,30.25,WNW,301,1.0,1.0,97,0.00,,,0.00,Wunderground v.1.15,2013-01-24 09:05:00,
2013-01-24 03:15:00,59.6,58.7,30.25,WSW,246,1.0,1.0,97,0.00,,,0.00,Wunderground v.1.15,2013-01-24 09:15:00,
2013-01-24 03:24:00,59.6,58.7,30.25,West,280,1.0,1.0,97,0.00,,,0.00,Wunderground v.1.15,2013-01-24 09:24:00,
2013-01-24 03:30:00,59.6,58.7,30.25,West,259,1.0,1.0,97,0.00,,,0.00,Wunderground v.1.15,2013-01-24 09:30:00,
2013-01-24 03:40:00,59.7,58.8,30.25,West,276,1.0,2.0,97,0.00,,,0.00,Wunderground v.1.15,2013-01-24 09:40:00,
2013-01-24 03:49:00,59.7,58.8,30.26,West,267,1.0,1.0,97,0.00,,,0.00,Wunderground v.1.15,2013-01-24 09:49:00,
2013-01-24 04:00:00,59.8,58.9,30.25,WSW,252,0.0,0.0,97,0.00,,,0.00,Wunderground v.1.15,2013-01-24 10:00:00,
2013-01-24 04:09:00,59.8,58.9,30.25,West,277,0.0,0.0,97,0.00,,,0.00,Wunderground v.1.15,2013-01-24 10:09:00,
2013-01-24 04:15:00,59.9,59.0,30.25,West,264,0.0,0.0,97,0.00,,,0.00,Wunderground v.1.15,2013-01-24 10:15:00,
2013-01-24 04:24:00,60.0,59.1,30.25,WSW,248,0.0,0.0,97,0.00,,,0.00,Wunderground v.1.15,2013-01-24 10:24:00,
2013-01-24 04:30:00,60.1,59.2,30.25,SSW,200,0.0,0.0,97,0.00,,,0.00,Wunderground v.1.15,2013-01-24 10:30:00,
2013-01-24 04:40:00,60.3,59.4,30.25,SW,215,1.0,1.0,97,0.00,,,0.00,Wunderground v.1.15,2013-01-24 10:40:00,
2013-01-24 04:49:00,60.3,59.4,30.25,West,264,0.0,1.0,97,0.00,,,0.00,Wunderground v.1.15,2013-01-24 10:49:00,
2013-01-24 04:55:00,60.4,59.5,30.25,West,264,0.0,1.0,97,0.00,,,0.00,Wunderground v.1.15,2013-01-24 10:55:00,
2013-01-24 05:04:00,60.6,59.7,30.25,West,274,1.0,2.0,97,0.00,,,0.00,Wunderground v.1.15,2013-01-24 11:04:00,
2013-01-24 05:15:00,60.9,60.3,30.25,WSW,257,1.0,2.0,98,0.00,,,0.00,Wunderground v.1.15,2013-01-24 11:15:00,
2013-01-24 05:25:00,61.1,60.5,30.25,WSW,252,1.0,4.0,98,0.00,,,0.00,Wunderground v.1.15,2013-01-24 11:25:00,
2013-01-24 05:35:00,61.4,60.8,30.25,West,278,1.0,1.0,98,0.00,,,0.00,Wunderground v.1.15,2013-01-24 11:35:00,
2013-01-24 05:40:00,61.5,60.9,30.25,West,274,2.0,2.0,98,0.00,,,0.00,Wunderground v.1.15,2013-01-24 11:40:00,
2013-01-24 05:50:00,61.6,61.0,30.25,West,276,2.0,4.0,98,0.00,,,0.00,Wunderground v.1.15,2013-01-24 11:50:00,
2013-01-24 05:59:00,61.6,60.7,30.25,WSW,248,2.0,2.0,97,0.00,,,0.00,Wunderground v.1.15,2013-01-24 11:59:00,
2013-01-24 06:05:00,61.6,60.7,30.25,North,5,2.0,3.0,97,0.00,,,0.00,Wunderground v.1.15,2013-01-24 12:05:00,
2013-01-24 06:14:00,61.6,61.0,30.25,SW,217,2.0,2.0,98,0.00,,,0.00,Wunderground v.1.15,2013-01-24 12:14:00,
2013-01-24 06:20:00,61.6,61.0,30.25,NW,321,3.0,5.0,98,0.00,,,0.00,Wunderground v.1.15,2013-01-24 12:20:00,
2013-01-24 06:29:00,61.7,61.1,30.26,West,272,2.0,3.0,98,0.00,,,0.00,Wunderground v.1.15,2013-01-24 12:29:00,
2013-01-24 06:40:00,61.8,61.2,30.26,WSW,238,2.0,2.0,98,0.00,,,0.00,Wunderground v.1.15,2013-01-24 12:40:00,
2013-01-24 06:49:00,61.8,61.2,30.26,SSW,194,2.0,2.0,98,0.00,,,0.00,Wunderground v.1.15,2013-01-24 12:49:00,
2013-01-24 06:55:00,61.8,61.2,30.26,West,269,1.0,2.0,98,0.00,,,0.00,Wunderground v.1.15,2013-01-24 12:55:00,
2013-01-24 07:05:00,61.8,61.2,30.26,West,276,1.0,2.0,98,0.00,,,0.00,Wunderground v.1.15,2013-01-24 13:05:00,
2013-01-24 07:15:00,61.8,61.2,30.26,SSW,195,1.0,2.0,98,0.00,,,0.00,Wunderground v.1.15,2013-01-24 13:15:00,
2013-01-24 07:24:00,61.8,61.2,30.26,WNW,289,1.0,1.0,98,0.00,,,0.00,Wunderground v.1.15,2013-01-24 13:24:00,
2013-01-24 07:30:00,61.8,61.2,30.26,West,269,1.0,1.0,98,0.00,,,0.00,Wunderground v.1.15,2013-01-24 13:30:00,
2013-01-24 07:39:00,61.8,61.2,30.26,SSW,203,1.0,1.0,98,0.00,,,0.00,Wunderground v.1.15,2013-01-24 13:39:00,
2013-01-24 07:50:00,61.7,61.1,30.27,WSW,252,1.0,1.0,98,0.00,,,0.00,Wunderground v.1.15,2013-01-24 13:50:00,
2013-01-24 08:00:00,61.7,61.1,30.27,NW,308,1.0,1.0,98,0.00,,,0.00,Wunderground v.1.15,2013-01-24 14:00:00,
2013-01-24 08:10:00,61.7,61.1,30.27,SW,226,1.0,1.0,98,0.00,,,0.00,Wunderground v.1.15,2013-01-24 14:10:00,
2013-01-24 08:20:00,61.6,61.0,30.28,WNW,285,2.0,2.0,98,0.00,,,0.00,Wunderground v.1.15,2013-01-24 14:20:00,
2013-01-24 08:30:00,61.6,61.0,30.28,West,273,2.0,2.0,98,0.00,,,0.00,Wunderground v.1.15,2013-01-24 14:30:00,
2013-01-24 08:40:00,61.6,61.0,30.28,WNW,302,2.0,2.0,98,0.00,,,0.00,Wunderground v.1.15,2013-01-24 14:40:00,
2013-01-24 08:50:00,61.7,61.1,30.28,SW,236,1.0,1.0,98,0.00,,,0.00,Wunderground v.1.15,2013-01-24 14:50:00,
2013-01-24 09:00:00,61.7,61.1,30.28,WSW,254,1.0,1.0,98,0.00,,,0.00,Wunderground v.1.15,2013-01-24 15:00:00,
2013-01-24 09:09:00,61.8,61.2,30.28,West,266,1.0,4.0,98,0.00,,,0.00,Wunderground v.1.15,2013-01-24 15:09:00,
2013-01-24 09:15:00,61.8,61.2,30.28,West,271,1.0,4.0,98,0.00,,,0.00,Wunderground v.1.15,2013-01-24 15:15:00,
2013-01-24 09:24:00,61.9,61.3,30.28,South,191,1.0,1.0,98,0.00,,,0.00,Wunderground v.1.15,2013-01-24 15:24:00,
2013-01-24 09:30:00,62.0,61.4,30.28,WSW,256,1.0,1.0,98,0.00,,,0.00,Wunderground v.1.15,2013-01-24 15:30:00,
2013-01-24 09:39:00,62.2,61.6,30.28,WNW,298,1.0,4.0,98,0.00,,,0.00,Wunderground v.1.15,2013-01-24 15:39:00,
2013-01-24 09:50:00,62.1,61.5,30.29,SSE,167,2.0,2.0,98,0.00,,,0.00,Wunderground v.1.15,2013-01-24 15:50:00,
2013-01-24 09:59:00,62.2,61.6,30.29,WNW,291,2.0,2.0,98,0.00,,,0.00,Wunderground v.1.15,2013-01-24 15:59:00,
2013-01-24 10:05:00,62.3,61.7,30.29,WSW,253,2.0,3.0,98,0.00,,,0.00,Wunderground v.1.15,2013-01-24 16:05:00,
2013-01-24 10:14:00,62.4,61.8,30.29,WSW,239,2.0,2.0,98,0.00,,,0.00,Wunderground v.1.15,2013-01-24 16:14:00,
2013-01-24 10:20:00,62.5,61.9,30.29,WNW,301,1.0,1.0,98,0.00,,,0.00,Wunderground v.1.15,2013-01-24 16:20:00,
2013-01-24 10:30:00,62.6,61.7,30.29,West,260,2.0,2.0,97,0.00,,,0.00,Wunderground v.1.15,2013-01-24 16:30:00,
2013-01-24 10:39:00,62.8,61.9,30.29,WNW,298,2.0,2.0,97,0.00,,,0.00,Wunderground v.1.15,2013-01-24 16:39:00,
2013-01-24 10:50:00,63.1,62.2,30.29,SW,229,2.0,2.0,97,0.00,,,0.00,Wunderground v.1.15,2013-01-24 16:50:00,
2013-01-24 11:00:00,63.3,62.1,30.28,SW,215,2.0,2.0,96,0.00,,,0.00,Wunderground v.1.15,2013-01-24 17:00:00,
2013-01-24 11:10:00,63.6,62.4,30.28,West,275,1.0,1.0,96,0.00,,,0.00,Wunderground v.1.15,2013-01-24 17:10:00,
2013-01-24 11:19:00,63.7,62.5,30.28,WSW,258,2.0,3.0,96,0.00,,,0.00,Wunderground v.1.15,2013-01-24 17:19:00,
2013-01-24 11:30:00,64.1,62.6,30.28,SW,225,2.0,2.0,95,0.00,,,0.00,Wunderground v.1.15,2013-01-24 17:30:00,
2013-01-24 11:39:00,64.4,62.6,30.27,West,259,2.0,2.0,94,0.00,,,0.00,Wunderground v.1.15,2013-01-24 17:39:00,
2013-01-24 11:45:00,64.6,62.8,30.27,SW,222,2.0,2.0,94,0.00,,,0.00,Wunderground v.1.15,2013-01-24 17:45:00,
2013-01-24 11:54:00,64.9,62.8,30.26,WSW,252,2.0,2.0,93,0.00,,,0.00,Wunderground v.1.15,2013-01-24 17:54:00,
2013-01-24 12:00:00,65.2,62.8,30.26,WSW,246,2.0,2.0,92,0.00,,,0.00,Wunderground v.1.15,2013-01-24 18:00:00,
2013-01-24 12:10:00,65.7,63.0,30.25,SW,225,2.0,2.0,91,0.00,,,0.00,Wunderground v.1.15,2013-01-24 18:10:00,
2013-01-24 12:20:00,66.0,63.0,30.25,ESE,113,2.0,2.0,90,0.00,,,0.00,Wunderground v.1.15,2013-01-24 18:20:00,
2013-01-24 12:29:00,66.4,63.4,30.25,WSW,246,2.0,2.0,90,0.00,,,0.00,Wunderground v.1.15,2013-01-24 18:29:00,
2013-01-24 12:40:00,67.1,63.4,30.24,WNW,295,2.0,2.0,88,0.00,,,0.00,Wunderground v.1.15,2013-01-24 18:40:00,
2013-01-24 12:49:00,67.8,63.5,30.23,SW,226,2.0,2.0,86,0.00,,,0.00,Wunderground v.1.15,2013-01-24 18:49:00,
2013-01-24 12:55:00,68.3,63.9,30.23,West,262,2.0,2.0,86,0.00,,,0.00,Wunderground v.1.15,2013-01-24 18:55:00,
2013-01-24 13:04:00,68.8,63.8,30.22,WSW,248,3.0,5.0,84,0.00,,,0.00,Wunderground v.1.15,2013-01-24 19:04:00,
2013-01-24 13:10:00,69.2,63.8,30.22,WNW,293,3.0,4.0,83,0.00,,,0.00,Wunderground v.1.15,2013-01-24 19:10:00,
2013-01-24 13:19:00,70.4,64.3,30.21,WSW,255,2.0,6.0,81,0.00,,,0.00,Wunderground v.1.15,2013-01-24 19:19:00,
2013-01-24 13:25:00,70.9,64.4,30.21,WSW,256,3.0,6.0,80,0.00,,,0.00,Wunderground v.1.15,2013-01-24 19:25:00,
2013-01-24 13:34:00,71.7,64.8,30.20,SSW,204,3.0,3.0,79,0.00,,,0.00,Wunderground v.1.15,2013-01-24 19:34:00,
2013-01-24 13:45:00,72.7,65.1,30.19,West,270,2.0,4.0,77,0.00,,,0.00,Wunderground v.1.15,2013-01-24 19:45:00,
2013-01-24 13:54:00,73.4,64.6,30.18,West,278,3.0,3.0,74,0.00,,,0.00,Wunderground v.1.15,2013-01-24 19:54:00,
2013-01-24 14:00:00,73.2,64.4,30.18,WNW,295,3.0,4.0,74,0.00,,,0.00,Wunderground v.1.15,2013-01-24 20:00:00,
2013-01-24 14:09:00,73.9,65.1,30.17,WNW,302,3.0,3.0,74,0.00,,,0.00,Wunderground v.1.15,2013-01-24 20:09:00,
2013-01-24 14:15:00,74.0,64.4,30.17,WSW,246,4.0,6.0,72,0.00,,,0.00,Wunderground v.1.15,2013-01-24 20:15:00,
2013-01-24 14:24:00,75.0,65.0,30.17,SW,214,2.0,3.0,71,0.00,,,0.00,Wunderground v.1.15,2013-01-24 20:24:00,
2013-01-24 14:30:00,75.2,65.1,30.17,NE,46,2.0,2.0,71,0.00,,,0.00,Wunderground v.1.15,2013-01-24 20:30:00,
2013-01-24 14:39:00,75.9,65.0,30.16,South,172,2.0,3.0,69,0.00,,,0.00,Wunderground v.1.15,2013-01-24 20:39:00,
2013-01-24 14:50:00,75.7,64.8,30.16,West,267,3.0,3.0,69,0.00,,,0.00,Wunderground v.1.15,2013-01-24 20:50:00,
2013-01-24 14:59:00,76.2,64.9,30.16,West,265,2.0,4.0,68,0.00,,,0.00,Wunderground v.1.15,2013-01-24 20:59:00,
2013-01-24 15:05:00,76.5,65.1,30.15,SSE,158,2.0,4.0,68,0.00,,,0.00,Wunderground v.1.15,2013-01-24 21:05:00,
2013-01-24 15:15:00,77.0,64.8,30.15,WNW,282,2.0,2.0,66,0.00,,,0.00,Wunderground v.1.15,2013-01-24 21:15:00,
2013-01-24 15:25:00,77.5,65.2,30.15,WNW,300,2.0,3.0,66,0.00,,,0.00,Wunderground v.1.15,2013-01-24 21:25:00,
2013-01-24 15:34:00,78.1,65.4,30.15,West,270,3.0,3.0,65,0.00,,,0.00,Wunderground v.1.15,2013-01-24 21:34:00,
2013-01-24 15:45:00,78.8,65.6,30.15,SSW,204,2.0,2.0,64,0.00,,,0.00,Wunderground v.1.15,2013-01-24 21:45:00,
2013-01-24 15:54:00,78.6,64.9,30.15,SW,222,1.0,1.0,63,0.00,,,0.00,Wunderground v.1.15,2013-01-24 21:54:00,
2013-01-24 16:05:00,77.8,64.6,30.15,SW,228,1.0,2.0,64,0.00,,,0.00,Wunderground v.1.15,2013-01-24 22:05:00,
2013-01-24 16:14:00,77.9,65.2,30.14,WNW,289,0.0,1.0,65,0.00,,,0.00,Wunderground v.1.15,2013-01-24 22:14:00,
2013-01-24 16:20:00,78.8,65.1,30.14,WNW,283,1.0,2.0,63,0.00,,,0.00,Wunderground v.1.15,2013-01-24 22:20:00,
2013-01-24 16:29:00,78.7,65.0,30.14,WSW,248,3.0,3.0,63,0.00,,,0.00,Wunderground v.1.15,2013-01-24 22:29:00,
2013-01-24 16:35:00,79.3,65.1,30.14,West,270,1.0,3.0,62,0.00,,,0.00,Wunderground v.1.15,2013-01-24 22:35:00,
2013-01-24 16:44:00,80.3,65.1,30.14,SE,131,1.0,1.0,60,0.00,,,0.00,Wunderground v.1.15,2013-01-24 22:44:00,
2013-01-24 16:55:00,80.0,63.4,30.13,SSE,158,1.0,2.0,57,0.00,,,0.00,Wunderground v.1.15,2013-01-24 22:55:00,
2013-01-24 17:04:00,79.8,63.7,30.13,WNW,290,2.0,3.0,58,0.00,,,0.00,Wunderground v.1.15,2013-01-24 23:04:00,
2013-01-24 17:15:00,80.2,64.6,30.13,NW,316,1.0,2.0,59,0.00,,,0.00,Wunderground v.1.15,2013-01-24 23:15:00,
2013-01-24 17:30:00,79.4,63.3,30.13,WSW,240,0.0,0.0,58,0.00,,,0.00,Wunderground v.1.15,2013-01-24 23:30:00,
2013-01-24 17:39:00,78.1,63.1,30.13,WSW,248,0.0,0.0,60,0.00,,,0.00,Wunderground v.1.15,2013-01-24 23:39:00,
2013-01-24 17:45:00,77.3,62.8,30.13,WSW,249,0.0,0.0,61,0.00,,,0.00,Wunderground v.1.15,2013-01-24 23:45:00,
2013-01-24 17:55:00,75.5,62.9,30.13,WSW,248,0.0,0.0,65,0.00,,,0.00,Wunderground v.1.15,2013-01-24 23:55:00,
2013-01-24 18:05:00,73.5,62.3,30.13,WSW,248,0.0,0.0,68,0.00,,,0.00,Wunderground v.1.15,2013-01-25 00:05:00,
2013-01-24 18:15:00,71.9,61.6,30.13,WSW,248,0.0,0.0,70,0.00,,,0.00,Wunderground v.1.15,2013-01-25 00:15:00,
2013-01-24 18:25:00,70.5,61.4,30.13,WSW,249,0.0,1.0,73,0.00,,,0.00,Wunderground v.1.15,2013-01-25 00:25:00,
2013-01-24 18:34:00,69.4,61.1,30.14,WSW,249,0.0,0.0,75,0.00,,,0.00,Wunderground v.1.15,2013-01-25 00:34:00,
2013-01-24 18:45:00,68.3,60.8,30.13,WSW,249,0.0,0.0,77,0.00,,,0.00,Wunderground v.1.15,2013-01-25 00:45:00,
2013-01-24 18:54:00,67.5,60.8,30.14,WSW,249,0.0,0.0,79,0.00,,,0.00,Wunderground v.1.15,2013-01-25 00:54:00,
2013-01-24 19:05:00,66.7,60.7,30.13,WSW,248,0.0,0.0,81,0.00,,,0.00,Wunderground v.1.15,2013-01-25 01:05:00,
2013-01-24 19:14:00,66.1,60.4,30.14,WSW,249,0.0,0.0,82,0.00,,,0.00,Wunderground v.1.15,2013-01-25 01:14:00,
2013-01-24 19:20:00,65.8,60.2,30.14,WSW,249,0.0,0.0,82,0.00,,,0.00,Wunderground v.1.15,2013-01-25 01:20:00,
2013-01-24 19:30:00,65.5,60.2,30.14,WSW,249,0.0,0.0,83,0.00,,,0.00,Wunderground v.1.15,2013-01-25 01:30:00,
2013-01-24 19:40:00,65.0,60.0,30.14,WSW,248,0.0,0.0,84,0.00,,,0.00,Wunderground v.1.15,2013-01-25 01:40:00,
2013-01-24 19:49:00,64.3,59.4,30.15,WSW,249,0.0,0.0,84,0.00,,,0.00,Wunderground v.1.15,2013-01-25 01:49:00,
2013-01-24 20:00:00,63.5,58.9,30.15,WSW,249,0.0,0.0,85,0.00,,,0.00,Wunderground v.1.15,2013-01-25 02:00:00,
2013-01-24 20:09:00,62.8,58.5,30.15,WSW,249,0.0,0.0,86,0.00,,,0.00,Wunderground v.1.15,2013-01-25 02:09:00,
2013-01-24 20:20:00,62.2,58.3,30.15,WSW,249,0.0,0.0,87,0.00,,,0.00,Wunderground v.1.15,2013-01-25 02:20:00,
2013-01-24 20:29:00,62.1,58.8,30.15,WSW,249,0.0,0.0,89,0.00,,,0.00,Wunderground v.1.15,2013-01-25 02:29:00,
2013-01-24 20:40:00,62.1,58.8,30.15,WSW,248,0.0,0.0,89,0.00,,,0.00,Wunderground v.1.15,2013-01-25 02:40:00,
2013-01-24 20:49:00,62.3,59.0,30.15,WSW,248,0.0,0.0,89,0.00,,,0.00,Wunderground v.1.15,2013-01-25 02:49:00,
2013-01-24 21:00:00,62.6,59.0,30.15,WSW,249,0.0,0.0,88,0.00,,,0.00,Wunderground v.1.15,2013-01-25 03:00:00,
2013-01-24 21:10:00,62.3,58.4,30.16,WSW,249,0.0,0.0,87,0.00,,,0.00,Wunderground v.1.15,2013-01-25 03:10:00,
2013-01-24 21:19:00,63.2,59.6,30.15,SE,145,0.0,0.0,88,0.00,,,0.00,Wunderground v.1.15,2013-01-25 03:19:00,
2013-01-24 21:25:00,64.0,59.7,30.16,ENE,76,0.0,0.0,86,0.00,,,0.00,Wunderground v.1.15,2013-01-25 03:25:00,
2013-01-24 21:34:00,64.6,60.3,30.16,ESE,103,0.0,1.0,86,0.00,,,0.00,Wunderground v.1.15,2013-01-25 03:34:00,
2013-01-24 21:44:00,64.6,60.3,30.16,SSE,155,0.0,0.0,86,0.00,,,0.00,Wunderground v.1.15,2013-01-25 03:44:00,
2013-01-24 21:50:00,64.4,60.4,30.16,SSW,207,0.0,0.0,87,0.00,,,0.00,Wunderground v.1.15,2013-01-25 03:50:00,
2013-01-24 21:59:00,63.8,59.9,30.16,SSW,207,0.0,0.0,87,0.00,,,0.00,Wunderground v.1.15,2013-01-25 03:59:00,
2013-01-24 22:10:00,63.0,59.7,30.17,SSW,207,0.0,0.0,89,0.00,,,0.00,Wunderground v.1.15,2013-01-25 04:10:00,
2013-01-24 22:20:00,62.3,59.3,30.17,SSW,207,0.0,0.0,90,0.00,,,0.00,Wunderground v.1.15,2013-01-25 04:20:00,
2013-01-24 22:29:00,61.9,59.2,30.17,SSW,207,0.0,0.0,91,0.00,,,0.00,Wunderground v.1.15,2013-01-25 04:29:00,
2013-01-24 22:35:00,61.6,58.9,30.17,SSW,207,0.0,0.0,91,0.00,,,0.00,Wunderground v.1.15,2013-01-25 04:35:00,
2013-01-24 22:44:00,61.3,59.0,30.17,SSW,207,0.0,0.0,92,0.00,,,0.00,Wunderground v.1.15,2013-01-25 04:44:00,
2013-01-24 22:55:00,61.1,59.1,30.17,SSW,208,0.0,0.0,93,0.00,,,0.00,Wunderground v.1.15,2013-01-25 04:55:00,
2013-01-24 23:04:00,60.6,58.6,30.17,SSW,207,0.0,0.0,93,0.00,,,0.00,Wunderground v.1.15,2013-01-25 05:04:00,
2013-01-24 23:09:00,60.6,58.9,30.17,SSW,207,0.0,0.0,94,0.00,,,0.00,Wunderground v.1.15,2013-01-25 05:09:00,
2013-01-24 23:15:00,60.6,58.9,30.17,East,100,0.0,0.0,94,0.00,,,0.00,Wunderground v.1.15,2013-01-25 05:15:00,
2013-01-24 23:24:00,60.4,58.7,30.17,East,100,0.0,0.0,94,0.00,,,0.00,Wunderground v.1.15,2013-01-25 05:24:00,
2013-01-24 23:34:00,60.3,58.9,30.17,East,100,0.0,0.0,95,0.00,,,0.00,Wunderground v.1.15,2013-01-25 05:34:00,
2013-01-24 23:40:00,60.4,59.0,30.17,East,100,0.0,0.0,95,0.00,,,0.00,Wunderground v.1.15,2013-01-25 05:40:00,
2013-01-24 23:45:00,60.5,59.4,30.17,East,101,0.0,0.0,96,0.00,,,0.00,Wunderground v.1.15,2013-01-25 05:45:00,
2013-01-24 23:54:00,60.6,59.5,30.17,East,100,0.0,0.0,96,0.00,,,0.00,Wunderground v.1.15,2013-01-25 05:54:00,